Terminal Aerodrome Forecast
Issued by NWS Charleston, WV

Current Version | Previous Version | Graphics & Text | Print | Product List | Glossary On
Versions: 1 2 3 4 5 6 7 8 9 10 11 12 13 14 15 16 17 18 19 20 21 22
654
FTUS41 KRLX 261740
TAFEKN
TAF
KEKN 261740Z 2618/2718 27011G19KT P6SM FEW029 BKN040 OVC050
     FM262200 28010G16KT P6SM SCT060
     FM270600 VRB03KT 3SM SHRA BKN090
     FM270700 20005KT 2SM SHRA OVC035
     FM270900 23008KT 6SM SHRA OVC030
     FM271200 26009KT P6SM BKN015=

USA.gov is the U.S. government's official web portal to all federal, state and local government web resources and services.